createdAt,value
2019-03-22T00:00:54.226Z,1025.74
2019-03-22T00:01:54.204Z,1025.72
2019-03-22T00:02:54.186Z,1025.75
2019-03-22T00:03:54.171Z,1025.72
2019-03-22T00:04:54.152Z,1025.69
2019-03-22T00:05:54.134Z,1025.68
2019-03-22T00:06:54.117Z,1025.67
2019-03-22T00:07:54.099Z,1025.68
2019-03-22T00:08:54.084Z,1025.73
2019-03-22T00:09:54.073Z,1025.67
2019-03-22T00:10:54.048Z,1025.68
2019-03-22T00:11:54.030Z,1025.67
2019-03-22T00:12:54.021Z,1025.65
2019-03-22T00:13:53.994Z,1025.64
2019-03-22T00:14:53.981Z,1025.64
2019-03-22T00:15:53.961Z,1025.60
2019-03-22T00:16:53.949Z,1025.62
2019-03-22T00:17:53.933Z,1025.59
2019-03-22T00:18:53.911Z,1025.58
2019-03-22T00:19:53.888Z,1025.62
2019-03-22T00:20:53.874Z,1025.61
2019-03-22T00:21:53.855Z,1025.65
2019-03-22T00:22:53.852Z,1025.62
2019-03-22T00:23:53.820Z,1025.69
2019-03-22T00:24:53.801Z,1025.65
2019-03-22T00:25:53.788Z,1025.69
2019-03-22T00:26:53.764Z,1025.67
2019-03-22T00:27:53.747Z,1025.66
2019-03-22T00:28:53.733Z,1025.65
2019-03-22T00:29:53.716Z,1025.63
2019-03-22T00:30:53.702Z,1025.61
2019-03-22T00:31:53.675Z,1025.59
2019-03-22T00:32:54.144Z,1025.63
2019-03-22T00:33:53.641Z,1025.62
2019-03-22T00:34:53.624Z,1025.66
2019-03-22T00:35:53.607Z,1025.63
2019-03-22T00:36:53.588Z,1025.66
2019-03-22T00:37:53.568Z,1025.66
2019-03-22T00:38:53.553Z,1025.68
2019-03-22T00:39:53.537Z,1025.61
2019-03-22T00:40:53.519Z,1025.62
2019-03-22T00:41:53.504Z,1025.59
2019-03-22T00:42:53.484Z,1025.59
2019-03-22T00:43:53.465Z,1025.63
2019-03-22T00:44:53.451Z,1025.60
2019-03-22T00:45:53.428Z,1025.64
2019-03-22T00:46:53.411Z,1025.59
2019-03-22T00:47:53.398Z,1025.61
2019-03-22T00:48:53.377Z,1025.59
2019-03-22T00:49:53.358Z,1025.59
2019-03-22T00:50:53.342Z,1025.60
2019-03-22T00:51:53.326Z,1025.62
2019-03-22T00:52:53.305Z,1025.62
2019-03-22T00:53:53.288Z,1025.61
2019-03-22T00:54:53.286Z,1025.62
2019-03-22T00:55:53.253Z,1025.60
2019-03-22T00:56:53.238Z,1025.64
2019-03-22T00:57:53.218Z,1025.62
2019-03-22T00:58:53.202Z,1025.63
2019-03-22T00:59:53.181Z,1025.60
2019-03-22T01:00:53.165Z,1025.61
2019-03-22T01:01:53.163Z,1025.60
2019-03-22T01:02:53.130Z,1025.58
2019-03-22T01:03:53.116Z,1025.58
2019-03-22T01:04:53.093Z,1025.59
2019-03-22T01:05:53.079Z,1025.59
2019-03-22T01:06:53.074Z,1025.57
2019-03-22T01:07:53.055Z,1025.55
2019-03-22T01:08:53.028Z,1025.56
2019-03-22T01:09:53.024Z,1025.51
2019-03-22T01:10:53.010Z,1025.52
2019-03-22T01:11:52.970Z,1025.52
2019-03-22T01:12:52.955Z,1025.49
2019-03-22T01:13:52.930Z,1025.47
2019-03-22T01:14:52.914Z,1025.47
2019-03-22T01:15:52.908Z,1025.45
2019-03-22T01:16:52.878Z,1025.46
2019-03-22T01:17:52.860Z,1025.39
2019-03-22T01:18:52.842Z,1025.43
2019-03-22T01:19:52.824Z,1025.39
2019-03-22T01:20:52.807Z,1025.41
2019-03-22T01:21:52.798Z,1025.40
2019-03-22T01:22:52.783Z,1025.40
2019-03-22T01:23:52.753Z,1025.42
2019-03-22T01:24:52.738Z,1025.44
2019-03-22T01:25:52.717Z,1025.44
2019-03-22T01:26:52.701Z,1025.47
2019-03-22T01:27:52.685Z,1025.47
2019-03-22T01:28:52.667Z,1025.48
2019-03-22T01:29:52.650Z,1025.47
2019-03-22T01:30:52.634Z,1025.47
2019-03-22T01:31:52.611Z,1025.47
2019-03-22T01:32:52.612Z,1025.47
2019-03-22T01:33:52.574Z,1025.47
2019-03-22T01:34:52.559Z,1025.46
2019-03-22T01:35:52.543Z,1025.47
2019-03-22T01:36:52.521Z,1025.50
2019-03-22T01:37:52.511Z,1025.47
2019-03-22T01:38:52.486Z,1025.48
2019-03-22T01:39:52.467Z,1025.46
2019-03-22T01:40:52.458Z,1025.48
2019-03-22T01:41:52.430Z,1025.48
2019-03-22T01:42:52.419Z,1025.47
2019-03-22T01:43:52.404Z,1025.45
2019-03-22T01:44:52.381Z,1025.49
2019-03-22T01:45:52.360Z,1025.47
2019-03-22T01:46:52.343Z,1025.45
2019-03-22T01:47:52.329Z,1025.47
2019-03-22T01:48:52.309Z,1025.46
2019-03-22T01:49:52.289Z,1025.44
2019-03-22T01:50:52.268Z,1025.46
2019-03-22T01:51:52.256Z,1025.46
2019-03-22T01:52:52.235Z,1025.43
2019-03-22T01:53:52.218Z,1025.46
2019-03-22T01:54:52.196Z,1025.44
2019-03-22T01:55:52.212Z,1025.43
2019-03-22T01:56:52.161Z,1025.42
2019-03-22T01:57:53.844Z,1025.42
2019-03-22T01:58:52.128Z,1025.43
2019-03-22T01:59:52.109Z,1025.38
2019-03-22T02:00:52.091Z,1025.41
2019-03-22T02:01:52.074Z,1025.40
2019-03-22T02:02:52.052Z,1025.41
2019-03-22T02:03:52.035Z,1025.38
2019-03-22T02:04:52.016Z,1025.33
2019-03-22T02:05:52.000Z,1025.34
2019-03-22T02:06:51.983Z,1025.30
2019-03-22T02:07:51.961Z,1025.29
2019-03-22T02:08:51.948Z,1025.29
2019-03-22T02:09:51.927Z,1025.25
2019-03-22T02:10:51.911Z,1025.24
2019-03-22T02:11:51.891Z,1025.20
2019-03-22T02:12:51.873Z,1025.22
2019-03-22T02:13:51.854Z,1025.21
2019-03-22T02:14:51.836Z,1025.24
2019-03-22T02:15:51.880Z,1025.22
2019-03-22T02:16:51.807Z,1025.25
2019-03-22T02:17:51.781Z,1025.26
2019-03-22T02:18:51.763Z,1025.21
2019-03-22T02:19:51.746Z,1025.22
2019-03-22T02:20:51.732Z,1025.23
2019-03-22T02:21:51.708Z,1025.23
2019-03-22T02:22:51.699Z,1025.21
2019-03-22T02:23:52.296Z,1025.20
2019-03-22T02:24:51.657Z,1025.20
2019-03-22T02:25:51.641Z,1025.24
2019-03-22T02:26:51.634Z,1025.27
2019-03-22T02:27:51.606Z,1025.25
2019-03-22T02:28:51.590Z,1025.27
2019-03-22T02:29:51.565Z,1025.26
2019-03-22T02:30:51.613Z,1025.26
2019-03-22T02:31:51.528Z,1025.25
2019-03-22T02:32:51.518Z,1025.23
2019-03-22T02:33:51.510Z,1025.22
2019-03-22T02:34:51.493Z,1025.20
2019-03-22T02:35:51.455Z,1025.20
2019-03-22T02:36:51.442Z,1025.19
2019-03-22T02:37:51.430Z,1025.17
2019-03-22T02:38:51.402Z,1025.14
2019-03-22T02:39:51.389Z,1025.17
2019-03-22T02:40:51.366Z,1025.14
2019-03-22T02:41:51.349Z,1025.17
2019-03-22T02:42:51.346Z,1025.16
2019-03-22T02:43:54.584Z,1025.16
2019-03-22T02:44:51.293Z,1025.14
2019-03-22T02:45:51.275Z,1025.12
2019-03-22T02:46:51.270Z,1025.12
2019-03-22T02:47:51.241Z,1025.10
2019-03-22T02:48:51.222Z,1025.07
2019-03-22T02:49:51.203Z,1025.11
2019-03-22T02:50:51.182Z,1025.08
2019-03-22T02:51:51.179Z,1025.06
2019-03-22T02:52:51.161Z,1025.04
2019-03-22T02:53:51.129Z,1025.04
2019-03-22T02:54:51.112Z,1025.08
2019-03-22T02:55:51.117Z,1025.07
2019-03-22T02:56:51.076Z,1025.04
2019-03-22T02:57:51.058Z,1025.06
2019-03-22T02:58:51.047Z,1025.06
2019-03-22T02:59:51.027Z,1025.08
2019-03-22T03:00:51.004Z,1025.08
2019-03-22T03:01:50.999Z,1025.11
2019-03-22T03:02:50.965Z,1025.11
2019-03-22T03:03:50.950Z,1025.10
2019-03-22T03:04:50.931Z,1025.08
2019-03-22T03:05:50.919Z,1025.10
2019-03-22T03:06:50.892Z,1025.10
2019-03-22T03:07:50.882Z,1025.10
2019-03-22T03:08:50.868Z,1025.12
2019-03-22T03:09:50.847Z,1025.07
2019-03-22T03:10:50.820Z,1025.09
2019-03-22T03:11:50.800Z,1025.10
2019-03-22T03:12:50.798Z,1025.06
2019-03-22T03:13:50.767Z,1025.07
2019-03-22T03:14:50.749Z,1025.04
2019-03-22T03:15:50.729Z,1025.05
2019-03-22T03:16:50.711Z,1025.00
2019-03-22T03:17:50.697Z,1025.02
2019-03-22T03:18:50.675Z,1024.99
2019-03-22T03:19:50.659Z,1024.98
2019-03-22T03:20:50.645Z,1024.99
2019-03-22T03:21:50.626Z,1024.98
2019-03-22T03:22:50.607Z,1024.94
2019-03-22T03:23:50.587Z,1024.89
2019-03-22T03:24:50.574Z,1024.92
2019-03-22T03:25:50.545Z,1024.90
2019-03-22T03:26:50.527Z,1024.90
2019-03-22T03:27:50.508Z,1024.90
2019-03-22T03:28:50.492Z,1024.90
2019-03-22T03:29:50.476Z,1024.91
2019-03-22T03:30:50.456Z,1024.91
2019-03-22T03:31:50.448Z,1024.92
2019-03-22T03:32:50.506Z,1024.91
2019-03-22T03:33:50.398Z,1024.89
2019-03-22T03:34:50.382Z,1024.86
2019-03-22T03:35:50.362Z,1024.85
2019-03-22T03:36:50.345Z,1024.83
2019-03-22T03:37:50.331Z,1024.75
2019-03-22T03:38:50.307Z,1024.76
2019-03-22T03:39:50.290Z,1024.76
2019-03-22T03:40:50.277Z,1024.71
2019-03-22T03:41:50.251Z,1024.74
2019-03-22T03:42:50.233Z,1024.67
2019-03-22T03:43:50.223Z,1024.68
2019-03-22T03:44:50.196Z,1024.70
2019-03-22T03:45:50.185Z,1024.69
2019-03-22T03:46:50.168Z,1024.69
2019-03-22T03:47:50.144Z,1024.74
2019-03-22T03:48:50.127Z,1024.73
2019-03-22T03:49:50.102Z,1024.74
2019-03-22T03:50:50.086Z,1024.71
2019-03-22T03:51:50.065Z,1024.72
2019-03-22T03:52:50.049Z,1024.76
2019-03-22T03:53:50.032Z,1024.75
2019-03-22T03:54:50.016Z,1024.76
2019-03-22T03:55:49.991Z,1024.75
2019-03-22T03:56:49.973Z,1024.75
2019-03-22T03:57:49.967Z,1024.75
2019-03-22T03:58:52.697Z,1024.71
2019-03-22T03:59:49.919Z,1024.74
2019-03-22T04:00:49.998Z,1024.74
2019-03-22T04:01:49.885Z,1024.74
2019-03-22T04:02:49.868Z,1024.72
2019-03-22T04:03:49.845Z,1024.73
2019-03-22T04:04:49.828Z,1024.71
2019-03-22T04:05:49.807Z,1024.66
2019-03-22T04:06:49.802Z,1024.67
2019-03-22T04:07:49.768Z,1024.63
2019-03-22T04:08:49.759Z,1024.66
2019-03-22T04:09:49.733Z,1024.61
2019-03-22T04:10:49.715Z,1024.60
2019-03-22T04:11:49.698Z,1024.57
2019-03-22T04:12:49.679Z,1024.57
2019-03-22T04:13:49.657Z,1024.58
2019-03-22T04:14:49.648Z,1024.59
2019-03-22T04:15:49.622Z,1024.56
2019-03-22T04:16:49.610Z,1024.60
2019-03-22T04:17:49.581Z,1024.62
2019-03-22T04:18:49.568Z,1024.62
2019-03-22T04:19:49.545Z,1024.65
2019-03-22T04:20:49.534Z,1024.64
2019-03-22T04:21:49.510Z,1024.65
2019-03-22T04:22:49.502Z,1024.65
2019-03-22T04:23:49.474Z,1024.67
2019-03-22T04:24:49.461Z,1024.63
2019-03-22T04:25:49.443Z,1024.60
2019-03-22T04:26:49.422Z,1024.61
2019-03-22T04:27:49.397Z,1024.61
2019-03-22T04:28:49.378Z,1024.63
2019-03-22T04:29:49.368Z,1024.59
2019-03-22T04:30:49.339Z,1024.60
2019-03-22T04:31:49.326Z,1024.59
2019-03-22T04:32:49.304Z,1024.61
2019-03-22T04:33:49.286Z,1024.58
2019-03-22T04:34:49.264Z,1024.57
2019-03-22T04:35:49.246Z,1024.59
2019-03-22T04:36:49.228Z,1024.55
2019-03-22T04:37:49.211Z,1024.55
2019-03-22T04:38:49.192Z,1024.56
2019-03-22T04:39:49.174Z,1024.50
2019-03-22T04:40:49.155Z,1024.53
2019-03-22T04:41:49.137Z,1024.53
2019-03-22T04:42:49.116Z,1024.54
2019-03-22T04:43:49.099Z,1024.54
2019-03-22T04:44:49.079Z,1024.52
2019-03-22T04:45:49.064Z,1024.53
2019-03-22T04:46:49.045Z,1024.53
2019-03-22T04:47:49.022Z,1024.52
2019-03-22T04:48:49.008Z,1024.51
2019-03-22T04:49:48.984Z,1024.53
2019-03-22T04:50:48.971Z,1024.50
2019-03-22T04:51:48.947Z,1024.51
2019-03-22T04:52:48.926Z,1024.49
2019-03-22T04:53:48.908Z,1024.49
2019-03-22T04:54:48.888Z,1024.49
2019-03-22T04:55:48.874Z,1024.48
2019-03-22T04:56:48.852Z,1024.46
2019-03-22T04:57:48.834Z,1024.45
2019-03-22T04:58:48.811Z,1024.43
2019-03-22T04:59:48.796Z,1024.42
2019-03-22T05:00:48.777Z,1024.43
2019-03-22T05:01:48.760Z,1024.45
2019-03-22T05:02:48.737Z,1024.47
2019-03-22T05:03:48.719Z,1024.49
2019-03-22T05:04:48.701Z,1024.50
2019-03-22T05:05:48.683Z,1024.55
2019-03-22T05:06:48.661Z,1024.51
2019-03-22T05:07:48.644Z,1024.54
2019-03-22T05:08:48.623Z,1024.57
2019-03-22T05:09:48.605Z,1024.56
2019-03-22T05:10:48.588Z,1024.53
2019-03-22T05:11:48.568Z,1024.53
2019-03-22T05:12:48.550Z,1024.54
2019-03-22T05:13:48.532Z,1024.55
2019-03-22T05:14:48.512Z,1024.54
2019-03-22T05:15:48.492Z,1024.55
2019-03-22T05:16:48.471Z,1024.54
2019-03-22T05:17:48.454Z,1024.56
2019-03-22T05:18:48.437Z,1024.60
2019-03-22T05:19:48.414Z,1024.57
2019-03-22T05:20:48.395Z,1024.56
2019-03-22T05:21:48.378Z,1024.58
2019-03-22T05:22:48.368Z,1024.55
2019-03-22T05:23:48.341Z,1024.57
2019-03-22T05:24:48.323Z,1024.59
2019-03-22T05:25:48.302Z,1024.62
2019-03-22T05:26:48.288Z,1024.62
2019-03-22T05:27:48.262Z,1024.66
2019-03-22T05:28:48.254Z,1024.68
2019-03-22T05:29:48.232Z,1024.71
2019-03-22T05:30:48.208Z,1024.73
2019-03-22T05:31:48.186Z,1024.76
2019-03-22T05:32:48.169Z,1024.75
2019-03-22T05:33:48.146Z,1024.77
2019-03-22T05:34:48.127Z,1024.79
2019-03-22T05:35:48.109Z,1024.74
2019-03-22T05:36:48.092Z,1024.73
2019-03-22T05:37:48.070Z,1024.76
2019-03-22T05:38:48.052Z,1024.73
2019-03-22T05:39:48.036Z,1024.76
2019-03-22T05:40:48.017Z,1024.79
2019-03-22T05:41:47.991Z,1024.80
2019-03-22T05:42:47.976Z,1024.84
2019-03-22T05:43:47.953Z,1024.85
2019-03-22T05:44:47.939Z,1024.84
2019-03-22T05:45:47.927Z,1024.89
2019-03-22T05:46:48.963Z,1024.87
2019-03-22T05:47:47.877Z,1024.88
2019-03-22T05:48:47.858Z,1024.88
2019-03-22T05:49:47.838Z,1024.84
2019-03-22T05:50:47.819Z,1024.83
2019-03-22T05:51:47.800Z,1024.87
2019-03-22T05:52:47.787Z,1024.87
2019-03-22T05:53:47.761Z,1024.90
2019-03-22T05:54:47.740Z,1024.85
2019-03-22T05:55:47.723Z,1024.89
2019-03-22T05:56:47.703Z,1024.87
2019-03-22T05:57:47.684Z,1024.84
2019-03-22T05:58:47.666Z,1024.88
2019-03-22T05:59:47.645Z,1024.91
2019-03-22T06:00:47.628Z,1024.91
2019-03-22T06:01:47.606Z,1024.91
2019-03-22T06:02:47.589Z,1024.93
2019-03-22T06:03:47.581Z,1024.96
2019-03-22T06:04:47.554Z,1024.98
2019-03-22T06:05:47.536Z,1024.99
2019-03-22T06:06:47.515Z,1024.99
2019-03-22T06:07:47.498Z,1025.03
2019-03-22T06:08:47.471Z,1025.05
2019-03-22T06:09:47.459Z,1025.07
2019-03-22T06:10:47.435Z,1025.08
2019-03-22T06:11:47.418Z,1025.10
2019-03-22T06:12:47.396Z,1025.14
2019-03-22T06:13:47.375Z,1025.13
2019-03-22T06:14:47.356Z,1025.16
2019-03-22T06:15:47.336Z,1025.16
2019-03-22T06:16:47.320Z,1025.17
2019-03-22T06:17:51.841Z,1025.17
2019-03-22T06:18:47.278Z,1025.20
2019-03-22T06:19:47.262Z,1025.20
2019-03-22T06:20:47.254Z,1025.16
2019-03-22T06:21:47.221Z,1025.18
2019-03-22T06:22:47.203Z,1025.19
2019-03-22T06:23:47.186Z,1025.15
2019-03-22T06:24:47.169Z,1025.16
2019-03-22T06:25:47.146Z,1025.18
2019-03-22T06:26:47.124Z,1025.15
2019-03-22T06:27:47.119Z,1025.21
2019-03-22T06:28:47.087Z,1025.19
2019-03-22T06:29:54.045Z,1025.25
2019-03-22T06:30:47.052Z,1025.20
2019-03-22T06:31:47.043Z,1025.25
2019-03-22T06:32:47.009Z,1025.26
2019-03-22T06:33:46.988Z,1025.28
2019-03-22T06:34:46.974Z,1025.30
2019-03-22T06:35:46.969Z,1025.33
2019-03-22T06:36:46.944Z,1025.35
2019-03-22T06:37:46.914Z,1025.35
2019-03-22T06:38:46.895Z,1025.39
2019-03-22T06:39:46.876Z,1025.38
2019-03-22T06:40:46.854Z,1025.42
2019-03-22T06:41:46.836Z,1025.44
2019-03-22T06:42:46.819Z,1025.48
2019-03-22T06:43:46.801Z,1025.48
2019-03-22T06:44:46.780Z,1025.53
2019-03-22T06:45:46.772Z,1025.56
2019-03-22T06:46:46.742Z,1025.54
2019-03-22T06:47:46.727Z,1025.55
2019-03-22T06:48:46.704Z,1025.55
2019-03-22T06:49:46.684Z,1025.57
2019-03-22T06:50:46.671Z,1025.50
2019-03-22T06:51:46.652Z,1025.53
2019-03-22T06:52:46.633Z,1025.50
2019-03-22T06:53:46.610Z,1025.54
2019-03-22T06:54:46.596Z,1025.57
2019-03-22T06:55:46.572Z,1025.58
2019-03-22T06:56:46.553Z,1025.59
2019-03-22T06:57:46.537Z,1025.59
2019-03-22T06:58:46.521Z,1025.61
2019-03-22T06:59:46.498Z,1025.63
2019-03-22T07:00:46.480Z,1025.65
2019-03-22T07:01:46.458Z,1025.60
2019-03-22T07:02:46.446Z,1025.58
2019-03-22T07:03:46.422Z,1025.63
2019-03-22T07:04:46.406Z,1025.63
2019-03-22T07:05:46.387Z,1025.61
2019-03-22T07:06:46.364Z,1025.64
2019-03-22T07:07:46.346Z,1025.62
2019-03-22T07:08:46.332Z,1025.62
2019-03-22T07:09:46.309Z,1025.62
2019-03-22T07:10:46.299Z,1025.64
2019-03-22T07:11:46.275Z,1025.62
2019-03-22T07:12:46.256Z,1025.66
2019-03-22T07:13:46.236Z,1025.64
2019-03-22T07:14:46.217Z,1025.64
2019-03-22T07:15:46.200Z,1025.69
2019-03-22T07:16:46.188Z,1025.68
2019-03-22T07:17:46.169Z,1025.68
2019-03-22T07:18:46.147Z,1025.62
2019-03-22T07:19:46.133Z,1025.64
2019-03-22T07:20:46.113Z,1025.65
2019-03-22T07:21:46.103Z,1025.63
2019-03-22T07:22:46.076Z,1025.67
2019-03-22T07:23:46.059Z,1025.65
2019-03-22T07:24:46.040Z,1025.63
2019-03-22T07:25:46.026Z,1025.63
2019-03-22T07:26:46.003Z,1025.62
2019-03-22T07:27:45.992Z,1025.63
2019-03-22T07:28:45.972Z,1025.60
2019-03-22T07:29:45.953Z,1025.59
2019-03-22T07:30:45.943Z,1025.63
2019-03-22T07:31:45.922Z,1025.59
2019-03-22T07:32:45.907Z,1025.59
2019-03-22T07:33:45.951Z,1025.54
2019-03-22T07:34:45.875Z,1025.54
2019-03-22T07:35:45.856Z,1025.55
2019-03-22T07:36:47.009Z,1025.63
2019-03-22T07:37:45.822Z,1025.60
2019-03-22T07:38:45.810Z,1025.62
2019-03-22T07:39:45.806Z,1025.64
2019-03-22T07:40:45.782Z,1025.69
2019-03-22T07:41:45.759Z,1025.61
2019-03-22T07:42:45.747Z,1025.66
2019-03-22T07:43:45.743Z,1025.67
2019-03-22T07:44:45.719Z,1025.68
2019-03-22T07:45:45.705Z,1025.74
2019-03-22T07:46:45.691Z,1025.72
2019-03-22T07:47:45.679Z,1025.71
2019-03-22T07:48:45.671Z,1025.74
2019-03-22T07:49:45.653Z,1025.74
2019-03-22T07:50:45.648Z,1025.80
2019-03-22T07:51:45.631Z,1025.87
2019-03-22T07:52:45.620Z,1025.95
2019-03-22T07:53:45.610Z,1025.90
2019-03-22T07:54:45.598Z,1025.87
2019-03-22T07:55:45.588Z,1025.96
2019-03-22T07:56:45.590Z,1026.03
2019-03-22T07:57:45.579Z,1026.04
2019-03-22T07:58:45.563Z,1026.04
2019-03-22T07:59:45.556Z,1026.04
2019-03-22T08:00:45.547Z,1026.07
2019-03-22T08:01:45.547Z,1026.05
2019-03-22T08:02:45.535Z,1026.08
2019-03-22T08:03:45.531Z,1026.06
2019-03-22T08:04:45.526Z,1026.06
2019-03-22T08:05:50.697Z,1026.01
2019-03-22T08:06:45.511Z,1026.03
2019-03-22T08:07:45.508Z,1025.95
2019-03-22T08:08:45.502Z,1026.00
2019-03-22T08:09:45.590Z,1026.03
2019-03-22T08:10:45.497Z,1026.12
2019-03-22T08:11:45.495Z,1026.08
2019-03-22T08:12:45.487Z,1026.14
2019-03-22T08:13:45.485Z,1026.17
2019-03-22T08:14:45.481Z,1026.11
2019-03-22T08:15:45.484Z,1026.10
2019-03-22T08:16:45.476Z,1026.04
2019-03-22T08:17:45.473Z,1026.02
2019-03-22T08:18:45.479Z,1026.01
2019-03-22T08:19:45.552Z,1026.03
2019-03-22T08:20:45.471Z,1026.02
2019-03-22T08:21:45.501Z,1026.01
2019-03-22T08:22:45.464Z,1025.99
2019-03-22T08:23:45.474Z,1026.00
2019-03-22T08:24:45.488Z,1025.96
2019-03-22T08:25:45.467Z,1025.96
2019-03-22T08:26:45.468Z,1025.94
2019-03-22T08:27:45.469Z,1025.99
2019-03-22T08:28:45.459Z,1025.99
2019-03-22T08:29:45.458Z,1025.95
2019-03-22T08:30:45.467Z,1025.91
2019-03-22T08:31:45.460Z,1025.90
2019-03-22T08:32:45.456Z,1025.91
2019-03-22T08:33:45.458Z,1025.89
2019-03-22T08:34:47.695Z,1025.92
2019-03-22T08:35:45.455Z,1025.93
2019-03-22T08:36:45.458Z,1025.92
2019-03-22T08:37:52.444Z,1025.96
2019-03-22T08:38:45.459Z,1025.97
2019-03-22T08:39:45.457Z,1025.96
2019-03-22T08:40:45.489Z,1025.96
2019-03-22T08:41:45.461Z,1025.94
2019-03-22T08:42:45.468Z,1025.93
2019-03-22T08:43:45.454Z,1025.95
2019-03-22T08:44:45.466Z,1025.97
2019-03-22T08:45:45.452Z,1025.96
2019-03-22T08:46:45.452Z,1025.96
2019-03-22T08:47:45.452Z,1025.93
2019-03-22T08:48:45.512Z,1025.93
2019-03-22T08:49:45.609Z,1025.94
2019-03-22T08:50:45.452Z,1025.89
2019-03-22T08:51:45.454Z,1025.89
2019-03-22T08:52:45.472Z,1025.88
2019-03-22T08:53:55.191Z,1025.89
2019-03-22T08:54:45.491Z,1025.85
2019-03-22T08:55:45.470Z,1025.91
2019-03-22T08:56:45.468Z,1025.91
2019-03-22T08:57:45.449Z,1025.95
2019-03-22T08:58:45.484Z,1025.96
2019-03-22T08:59:45.452Z,1025.94
2019-03-22T09:00:56.679Z,1025.94
2019-03-22T09:01:45.473Z,1025.94
2019-03-22T09:02:45.451Z,1025.91
2019-03-22T09:03:45.493Z,1025.94
2019-03-22T09:04:45.457Z,1025.96
2019-03-22T09:05:45.447Z,1025.92
2019-03-22T09:06:45.480Z,1025.92
2019-03-22T09:07:45.490Z,1025.95
2019-03-22T09:08:47.799Z,1025.92
2019-03-22T09:09:45.473Z,1026.01
2019-03-22T09:10:45.462Z,1026.01
2019-03-22T09:11:45.445Z,1026.00
2019-03-22T09:12:45.456Z,1025.90
2019-03-22T09:13:45.447Z,1025.89
2019-03-22T09:14:45.456Z,1025.85
2019-03-22T09:15:45.444Z,1025.87
2019-03-22T09:16:45.476Z,1025.88
2019-03-22T09:17:45.467Z,1025.82
2019-03-22T09:18:45.443Z,1025.81
2019-03-22T09:19:45.444Z,1025.85
2019-03-22T09:20:45.446Z,1025.82
2019-03-22T09:21:45.487Z,1025.84
2019-03-22T09:22:45.441Z,1025.83
2019-03-22T09:23:45.459Z,1025.81
2019-03-22T09:24:45.471Z,1025.79
2019-03-22T09:25:45.438Z,1025.81
2019-03-22T09:26:47.919Z,1025.78
2019-03-22T09:27:45.439Z,1025.79
2019-03-22T09:28:45.445Z,1025.77
2019-03-22T09:29:47.380Z,1025.71
2019-03-22T09:30:45.485Z,1025.70
2019-03-22T09:31:45.447Z,1025.67
2019-03-22T09:32:45.430Z,1025.69
2019-03-22T09:33:45.446Z,1025.64
2019-03-22T09:34:45.425Z,1025.65
2019-03-22T09:35:45.434Z,1025.67
2019-03-22T09:36:45.470Z,1025.58
2019-03-22T09:37:45.438Z,1025.60
2019-03-22T09:38:45.417Z,1025.51
2019-03-22T09:39:45.423Z,1025.53
2019-03-22T09:40:45.416Z,1025.46
2019-03-22T09:41:45.411Z,1025.47
2019-03-22T09:42:45.632Z,1025.41
2019-03-22T09:43:45.427Z,1025.40
2019-03-22T09:44:45.724Z,1025.35
2019-03-22T09:45:45.471Z,1025.28
2019-03-22T09:46:45.409Z,1025.14
2019-03-22T09:47:45.404Z,1025.00
2019-03-22T09:48:45.402Z,1024.93
2019-03-22T09:49:45.420Z,1024.94
2019-03-22T09:50:45.414Z,1024.91
2019-03-22T09:51:45.422Z,1024.91
2019-03-22T09:52:45.397Z,1024.88
2019-03-22T09:53:45.388Z,1024.94
2019-03-22T09:54:45.376Z,1024.90
2019-03-22T09:55:45.398Z,1024.90
2019-03-22T09:56:47.319Z,1024.92
2019-03-22T09:57:45.393Z,1024.88
2019-03-22T09:58:45.395Z,1024.89
2019-03-22T09:59:45.390Z,1024.87
2019-03-22T10:00:48.459Z,1024.89
2019-03-22T10:01:45.349Z,1024.87
2019-03-22T10:02:45.377Z,1024.84
2019-03-22T10:03:45.343Z,1024.84
2019-03-22T10:04:45.339Z,1024.88
2019-03-22T10:05:45.336Z,1024.88
2019-03-22T10:06:45.330Z,1024.85
2019-03-22T10:07:45.383Z,1024.82
2019-03-22T10:08:45.322Z,1024.78
2019-03-22T10:09:45.325Z,1024.78
2019-03-22T10:10:45.329Z,1024.75
2019-03-22T10:11:45.309Z,1024.74
2019-03-22T10:12:45.308Z,1024.74
2019-03-22T10:13:48.233Z,1024.74
2019-03-22T10:14:45.295Z,1024.72
2019-03-22T10:15:45.423Z,1024.70
2019-03-22T10:16:47.628Z,1024.70
2019-03-22T10:17:45.285Z,1024.65
2019-03-22T10:18:45.347Z,1024.69
2019-03-22T10:19:45.282Z,1024.67
2019-03-22T10:20:45.402Z,1024.63
2019-03-22T10:21:45.302Z,1024.64
2019-03-22T10:22:45.275Z,1024.64
2019-03-22T10:23:45.262Z,1024.66
2019-03-22T10:24:45.369Z,1024.61
2019-03-22T10:25:45.251Z,1024.58
2019-03-22T10:26:45.265Z,1024.60
2019-03-22T10:27:45.230Z,1024.56
2019-03-22T10:28:45.222Z,1024.52
2019-03-22T10:29:45.237Z,1024.51
2019-03-22T10:30:45.210Z,1024.51
2019-03-22T10:31:45.238Z,1024.52
2019-03-22T10:32:45.234Z,1024.56
2019-03-22T10:33:45.217Z,1024.52
2019-03-22T10:34:45.186Z,1024.53
2019-03-22T10:35:45.201Z,1024.52
2019-03-22T10:36:45.239Z,1024.50
2019-03-22T10:37:45.208Z,1024.50
2019-03-22T10:38:45.213Z,1024.51
2019-03-22T10:39:45.161Z,1024.45
2019-03-22T10:40:45.210Z,1024.48
2019-03-22T10:41:45.188Z,1024.49
2019-03-22T10:42:45.130Z,1024.49
2019-03-22T10:43:45.124Z,1024.48
2019-03-22T10:44:45.123Z,1024.48
2019-03-22T10:45:45.157Z,1024.43
2019-03-22T10:46:45.103Z,1024.41
2019-03-22T10:47:45.129Z,1024.38
2019-03-22T10:48:45.117Z,1024.38
2019-03-22T10:49:45.119Z,1024.33
2019-03-22T10:50:45.183Z,1024.33
2019-03-22T10:51:56.088Z,1024.27
2019-03-22T10:52:48.055Z,1024.29
2019-03-22T10:53:45.082Z,1024.29
2019-03-22T10:54:45.103Z,1024.25
2019-03-22T10:55:45.040Z,1024.21
2019-03-22T10:56:45.050Z,1024.18
2019-03-22T10:57:45.026Z,1024.15
2019-03-22T10:58:45.018Z,1024.12
2019-03-22T10:59:45.015Z,1024.06
2019-03-22T11:00:45.004Z,1024.02
2019-03-22T11:01:52.403Z,1024.00
2019-03-22T11:02:44.991Z,1024.00
2019-03-22T11:03:45.072Z,1024.00
2019-03-22T11:04:44.982Z,1023.97
2019-03-22T11:05:44.968Z,1023.96
2019-03-22T11:06:44.975Z,1024.01
2019-03-22T11:07:44.968Z,1024.01
2019-03-22T11:08:44.946Z,1024.02
2019-03-22T11:09:44.944Z,1024.00
2019-03-22T11:10:44.941Z,1023.97
2019-03-22T11:11:44.975Z,1024.00
2019-03-22T11:12:44.914Z,1024.00
2019-03-22T11:13:44.908Z,1024.00
2019-03-22T11:14:45.771Z,1024.02
2019-03-22T11:15:48.704Z,1024.02
2019-03-22T11:16:44.889Z,1023.97
2019-03-22T11:17:44.887Z,1023.99
2019-03-22T11:18:44.870Z,1023.95
2019-03-22T11:19:44.863Z,1023.92
2019-03-22T11:20:45.765Z,1023.92
2019-03-22T11:21:44.845Z,1023.92
2019-03-22T11:22:44.838Z,1023.87
2019-03-22T11:23:44.832Z,1023.86
2019-03-22T11:24:44.825Z,1023.87
2019-03-22T11:25:44.815Z,1023.86
2019-03-22T11:26:44.807Z,1023.83
2019-03-22T11:27:44.826Z,1023.82
2019-03-22T11:28:44.789Z,1023.78
2019-03-22T11:29:44.785Z,1023.78
2019-03-22T11:30:44.777Z,1023.73
2019-03-22T11:31:44.767Z,1023.75
2019-03-22T11:32:44.764Z,1023.71
2019-03-22T11:33:44.754Z,1023.71
2019-03-22T11:34:44.738Z,1023.69
2019-03-22T11:35:44.733Z,1023.66
2019-03-22T11:36:44.723Z,1023.61
2019-03-22T11:37:44.719Z,1023.57
2019-03-22T11:38:44.706Z,1023.54
2019-03-22T11:39:44.700Z,1023.53
2019-03-22T11:40:46.820Z,1023.49
2019-03-22T11:41:44.684Z,1023.50
2019-03-22T11:42:44.679Z,1023.54
2019-03-22T11:43:44.681Z,1023.48
2019-03-22T11:44:44.698Z,1023.50
2019-03-22T11:45:44.649Z,1023.47
2019-03-22T11:46:44.646Z,1023.43
2019-03-22T11:47:44.636Z,1023.42
2019-03-22T11:48:44.642Z,1023.39
2019-03-22T11:49:44.617Z,1023.37
2019-03-22T11:50:44.611Z,1023.34
2019-03-22T11:51:44.602Z,1023.35
2019-03-22T11:52:44.598Z,1023.39
2019-03-22T11:53:44.591Z,1023.43
2019-03-22T11:54:44.576Z,1023.36
2019-03-22T11:55:44.566Z,1023.37
2019-03-22T11:56:44.560Z,1023.30
2019-03-22T11:57:44.550Z,1023.27
2019-03-22T11:58:44.543Z,1023.23
2019-03-22T11:59:44.537Z,1023.25
2019-03-22T12:00:44.536Z,1023.22
2019-03-22T12:01:44.518Z,1023.23
2019-03-22T12:02:44.509Z,1023.16
2019-03-22T12:03:44.515Z,1023.18
2019-03-22T12:04:44.492Z,1023.16
2019-03-22T12:05:44.483Z,1023.13